Time;durP1;ratioP1;P1;durP2;ratioP2;P2;SDS_P1;SDS_P2;PMS_P1;PMS_P2;Temp;Humidity;BMP_temperature;BMP_pressure;BME280_temperature;BME280_humidity;BME280_pressure;Samples;Min_cycle;Max_cycle;Signal;HPM_P1;HPM_P2
2022/07/08 17:52:48;;;;;;;11.65;3.00;;;;;;;20.22;65.27;101365.88;5404196;54;46342;-65
2022/07/08 17:57:54;;;;;;;12.13;2.70;;;;;;;20.13;66.29;101376.26;5133612;57;1136949;-65
2022/07/08 18:02:59;;;;;;;7.10;1.50;;;;;;;20.11;66.89;101384.97;5018637;57;1141098;-66
2022/07/08 18:08:06;;;;;;;7.22;1.70;;;;;;;19.95;69.17;101386.56;5100639;57;1139088;-66
2022/07/08 18:13:12;;;;;;;12.07;1.80;;;;;;;19.72;70.27;101395.28;5057494;57;1139107;-66
2022/07/08 18:18:18;;;;;;;5.80;1.47;;;;;;;19.48;72.33;101407.99;5119203;57;1141212;-66
2022/07/08 18:23:24;;;;;;;3.05;1.12;;;;;;;19.25;73.50;101406.27;5044237;57;1139049;-65
2022/07/08 18:28:30;;;;;;;14.73;3.05;;;;;;;19.02;75.48;101401.88;5050995;56;1139216;-65
2022/07/08 18:33:36;;;;;;;5.35;1.67;;;;;;;18.91;75.95;101405.63;5196579;56;1141205;-65
2022/07/08 18:38:42;;;;;;;6.40;1.95;;;;;;;18.79;76.59;101414.84;5217139;56;1139149;-65
2022/07/08 18:43:48;;;;;;;6.67;2.10;;;;;;;18.67;77.31;101419.23;5205278;56;1139170;-65
2022/07/08 18:48:54;;;;;;;8.70;1.87;;;;;;;18.56;77.77;101425.61;5204618;56;1139236;-65
2022/07/08 18:54:00;;;;;;;3.60;1.32;;;;;;;18.43;78.04;101419.75;5146249;57;1139025;-65
2022/07/08 18:59:06;;;;;;;6.03;1.40;;;;;;;18.26;79.36;101423.55;5095172;57;1139042;-65
2022/07/08 19:04:13;;;;;;;8.53;5.15;;;;;;;18.15;79.82;101428.25;4994985;59;1139028;-65
2022/07/08 19:09:19;;;;;;;5.28;1.92;;;;;;;18.08;79.46;101432.48;4965180;58;1139119;-65
2022/07/08 19:14:25;;;;;;;2.98;1.98;;;;;;;18.04;79.70;101427.91;5128478;57;1139001;-66
2022/07/08 19:19:31;;;;;;;3.80;1.87;;;;;;;17.89;81.11;101438.72;5190138;57;1138974;-65
2022/07/08 19:24:37;;;;;;;7.65;2.05;;;;;;;17.80;81.40;101441.78;5136276;56;1139101;-66
2022/07/08 19:29:43;;;;;;;7.67;2.50;;;;;;;17.71;81.75;101446.66;5110287;58;1139351;-66
2022/07/08 19:34:48;;;;;;;2.67;1.53;;;;;;;17.61;82.92;101455.14;5169569;57;1138969;-66
2022/07/08 19:39:54;;;;;;;15.20;12.30;;;;;;;17.54;83.23;101456.21;5195110;57;1139502;-66
2022/07/08 19:45:01;;;;;;;16.63;10.20;;;;;;;17.42;85.09;101459.98;5195380;57;1143232;-66
2022/07/08 19:50:08;;;;;;;3.90;1.00;;;;;;;17.32;85.95;101462.31;5197580;56;1143162;-68
2022/07/08 19:55:13;;;;;;;1.03;1.00;;;;;;;17.27;86.62;101468.56;5201931;55;1139169;-69
2022/07/08 20:00:20;;;;;;;2.03;0.90;;;;;;;17.20;87.88;101470.47;5307695;55;1139083;-68
2022/07/08 20:05:26;;;;;;;2.90;1.27;;;;;;;17.16;87.80;101481.57;5307314;55;1139035;-68
2022/07/08 20:10:32;;;;;;;1.80;0.80;;;;;;;17.03;88.57;101481.83;5244551;55;1139040;-69
2022/07/08 20:15:40;;;;;;;3.20;0.90;;;;;;;16.93;89.85;101480.13;5171849;56;1139077;-69
2022/07/08 20:20:46;;;;;;;2.33;1.20;;;;;;;16.88;91.24;101473.36;5153159;56;1139284;-68
2022/07/08 20:25:52;;;;;;;2.17;0.90;;;;;;;16.84;90.74;101477.77;5031687;58;1139100;-68
2022/07/08 20:30:58;;;;;;;1.20;0.77;;;;;;;16.83;91.19;101482.26;5057173;57;1138918;-68
2022/07/08 20:36:03;;;;;;;2.17;0.90;;;;;;;16.79;91.33;101478.68;4970513;58;1139041;-68
2022/07/08 20:46:33;;;;;;;1.27;0.70;;;;;;;16.72;92.38;101470.35;5073798;57;1139152;-68
2022/07/08 20:51:38;;;;;;;3.53;0.90;;;;;;;16.71;92.69;101467.81;5052763;58;1136965;-68
2022/07/08 20:56:44;;;;;;;0.93;0.63;;;;;;;16.70;92.57;101462.95;5049199;57;1136973;-68
2022/07/08 21:01:53;;;;;;;2.97;1.13;;;;;;;16.74;92.66;101465.72;4954903;59;1136964;-69
2022/07/08 21:06:58;;;;;;;0.93;0.80;;;;;;;16.73;92.37;101457.84;4993693;58;1137142;-67
2022/07/08 21:12:04;;;;;;;1.33;0.80;;;;;;;16.69;92.22;101460.42;5094175;57;1136943;-68
2022/07/08 21:17:10;;;;;;;1.93;1.00;;;;;;;16.63;92.23;101465.83;5097587;56;1136959;-68
2022/07/08 21:22:16;;;;;;;5.27;0.83;;;;;;;16.61;92.87;101464.23;5116923;57;1137133;-68
2022/07/08 21:27:21;;;;;;;1.67;1.23;;;;;;;16.58;93.22;101467.17;5176251;56;1137055;-68
2022/07/08 21:32:27;;;;;;;1.93;0.60;;;;;;;16.56;93.49;101467.79;5206636;56;1137002;-68
2022/07/08 21:37:33;;;;;;;1.70;0.87;;;;;;;16.52;93.52;101455.19;5198113;56;1137239;-68
2022/07/08 21:42:39;;;;;;;1.10;0.60;;;;;;;16.49;93.69;101453.66;5192685;56;1136882;-68
2022/07/08 21:47:44;;;;;;;1.10;1.00;;;;;;;16.45;93.74;101455.39;5182761;56;1136965;-69
2022/07/08 21:52:52;;;;;;;2.37;0.90;;;;;;;16.40;93.66;101446.92;5183831;56;1137005;-68
2022/07/08 21:57:57;;;;;;;4.67;1.20;;;;;;;16.34;93.78;101449.66;5189295;56;1137231;-68
2022/07/08 22:03:03;;;;;;;1.00;1.00;;;;;;;16.27;93.86;101444.48;5166567;56;1137111;-68
2022/07/08 22:08:09;;;;;;;3.57;1.13;;;;;;;16.24;93.84;101438.06;5154456;57;1137135;-69
2022/07/08 22:13:15;;;;;;;0.97;0.90;;;;;;;16.15;94.07;101434.39;5218367;56;1137174;-68
2022/07/08 22:18:21;;;;;;;4.80;1.13;;;;;;;16.08;94.00;101434.55;5226306;56;1136775;-68
2022/07/08 22:23:28;;;;;;;1.83;1.10;;;;;;;16.06;93.83;101424.98;5190901;56;1134883;-68
2022/07/08 22:28:34;;;;;;;2.40;1.10;;;;;;;16.04;94.00;101420.28;5188052;56;1135098;-68
2022/07/08 22:33:41;;;;;;;3.10;1.10;;;;;;;16.01;94.50;101425.88;5185113;56;1139239;-68
2022/07/08 22:38:46;;;;;;;4.87;1.47;;;;;;;15.92;95.02;101415.98;5186575;56;1139224;-68
2022/07/08 22:43:52;;;;;;;1.33;1.20;;;;;;;15.87;95.15;101408.39;5190960;56;1139115;-68
2022/07/08 22:49:00;;;;;;;3.70;1.10;;;;;;;15.77;96.90;101415.47;5114099;57;1139042;-69
2022/07/08 22:54:06;;;;;;;5.27;1.73;;;;;;;15.65;96.51;101396.52;5159006;56;1139529;-68
2022/07/08 22:59:12;;;;;;;4.87;1.83;;;;;;;15.52;96.98;101398.02;5070180;57;1139536;-68
2022/07/08 23:04:17;;;;;;;4.73;1.80;;;;;;;15.43;97.91;101409.43;5131285;57;1139032;-68
2022/07/08 23:09:23;;;;;;;2.77;1.80;;;;;;;15.32;98.02;101397.50;5131269;57;1138486;-68
2022/07/08 23:14:29;;;;;;;4.62;2.25;;;;;;;15.26;98.86;101398.03;5206153;56;1139189;-68
2022/07/08 23:19:35;;;;;;;9.80;2.50;;;;;;;15.19;98.99;101387.50;5151220;57;1139049;-68
2022/07/08 23:24:41;;;;;;;4.77;2.00;;;;;;;15.09;99.22;101384.77;5151264;57;1139243;-68
2022/07/08 23:29:46;;;;;;;6.40;2.57;;;;;;;15.08;99.74;101389.73;5151177;57;1139296;-68
2022/07/08 23:34:52;;;;;;;9.57;2.40;;;;;;;15.03;99.75;101389.26;5151324;56;1139115;-68
2022/07/08 23:39:59;;;;;;;5.20;1.97;;;;;;;15.02;100.00;101384.90;5151225;57;1139055;-68
2022/07/08 23:45:06;;;;;;;4.80;2.53;;;;;;;14.99;100.00;101388.66;5151128;57;1141147;-67
2022/07/08 23:50:11;;;;;;;5.37;2.50;;;;;;;14.95;100.00;101389.06;5151185;57;1141127;-68
2022/07/08 23:55:17;;;;;;;4.57;2.43;;;;;;;14.89;100.00;101379.74;5112933;56;1141106;-68
